Time;durP1;ratioP1;P1;durP2;ratioP2;P2;SDS_P1;SDS_P2;PMS_P1;PMS_P2;Temp;Humidity;BMP_temperature;BMP_pressure;BME280_temperature;BME280_humidity;BME280_pressure;Samples;Min_cycle;Max_cycle;Signal;HPM_P1;HPM_P2
2024/02/24 00:02:06;;;;;;;7.15;6.53;;;5.50;1.00;;;;;;5098022;28;20246;-75
2024/02/24 00:04:33;;;;;;;10.23;7.60;;;5.50;1.00;;;;;;5095005;27;20988;-75
2024/02/24 00:07:00;;;;;;;9.52;5.93;;;5.50;1.00;;;;;;5095196;27;20263;-75
2024/02/24 00:09:34;;;;;;;7.25;6.50;;;5.50;1.00;;;;;;5093893;28;20264;-76
2024/02/24 00:12:01;;;;;;;12.95;6.50;;;5.50;1.00;;;;;;5102455;27;20262;-76
2024/02/24 00:14:29;;;;;;;7.57;6.10;;;5.40;1.00;;;;;;5102256;27;20236;-76
2024/02/24 00:16:59;;;;;;;6.70;6.07;;;5.40;1.00;;;;;;5091443;28;20324;-77
2024/02/24 00:19:28;;;;;;;6.83;6.23;;;5.40;1.00;;;;;;5090825;28;21138;-75
2024/02/24 00:21:57;;;;;;;6.53;5.93;;;5.50;1.00;;;;;;5090342;28;20464;-75
2024/02/24 00:24:24;;;;;;;6.45;4.95;;;5.40;1.00;;;;;;5090469;28;20234;-76
2024/02/24 00:26:51;;;;;;;9.00;6.00;;;5.40;1.00;;;;;;5087985;27;20234;-75
2024/02/24 00:29:18;;;;;;;8.33;6.50;;;5.30;1.00;;;;;;5080167;27;20246;-74
2024/02/24 00:31:46;;;;;;;6.88;5.90;;;5.30;1.00;;;;;;5080581;27;20536;-75
2024/02/24 00:34:15;;;;;;;6.68;6.00;;;5.40;1.00;;;;;;5073099;27;20238;-75
2024/02/24 00:36:42;;;;;;;8.00;5.53;;;5.50;1.00;;;;;;5076837;28;20234;-73
2024/02/24 00:39:09;;;;;;;13.03;7.67;;;5.50;1.00;;;;;;5087545;28;20480;-74
2024/02/24 00:41:35;;;;;;;8.68;6.47;;;5.50;1.00;;;;;;5088521;27;20483;-75
2024/02/24 00:44:04;;;;;;;6.80;5.75;;;5.60;1.00;;;;;;5101774;27;20750;-76
2024/02/24 00:46:31;;;;;;;5.88;5.28;;;5.60;1.00;;;;;;5089480;27;21084;-75
2024/02/24 00:48:58;;;;;;;7.85;4.88;;;5.60;1.00;;;;;;5102288;27;20257;-76
2024/02/24 00:51:26;;;;;;;7.65;4.85;;;5.50;1.00;;;;;;5093029;27;20244;-75
2024/02/24 00:53:54;;;;;;;8.60;5.85;;;5.50;1.00;;;;;;5095109;27;20236;-75
2024/02/24 00:56:21;;;;;;;7.47;6.03;;;5.50;1.00;;;;;;5099665;27;20237;-76
2024/02/24 00:58:48;;;;;;;9.50;6.60;;;5.40;1.00;;;;;;5089785;28;20259;-75
2024/02/24 01:01:15;;;;;;;9.60;7.03;;;5.40;1.00;;;;;;5088279;28;20228;-75
2024/02/24 01:03:42;;;;;;;5.80;5.25;;;5.30;1.00;;;;;;5087925;28;20251;-75
2024/02/24 01:06:09;;;;;;;6.35;4.93;;;5.20;1.00;;;;;;5086935;28;20368;-75
2024/02/24 01:08:37;;;;;;;8.60;5.25;;;5.20;1.00;;;;;;5087907;28;20260;-75
2024/02/24 01:11:06;;;;;;;9.13;5.60;;;5.10;1.00;;;;;;5085554;28;20896;-75
2024/02/24 01:13:34;;;;;;;8.63;6.18;;;5.00;1.00;;;;;;5087596;27;20247;-76
2024/02/24 01:16:01;;;;;;;5.75;5.25;;;4.90;1.00;;;;;;5088362;28;20385;-74
2024/02/24 01:18:28;;;;;;;6.18;5.65;;;4.80;1.00;;;;;;5089704;27;20711;-75
2024/02/24 01:20:55;;;;;;;5.63;4.88;;;4.80;1.00;;;;;;5099087;27;20236;-75
2024/02/24 01:23:24;;;;;;;6.07;5.00;;;4.70;1.00;;;;;;5109245;27;20298;-76
2024/02/24 01:25:52;;;;;;;7.00;5.57;;;4.70;1.00;;;;;;5099371;27;20703;-75
2024/02/24 01:28:20;;;;;;;5.28;4.88;;;4.60;1.00;;;;;;5092559;27;20232;-76
2024/02/24 01:30:48;;;;;;;5.72;5.18;;;4.60;1.00;;;;;;5087693;28;20258;-75
2024/02/24 01:33:15;;;;;;;5.97;5.40;;;4.50;1.00;;;;;;5087695;28;20238;-74
2024/02/24 01:35:42;;;;;;;9.77;5.82;;;4.50;1.00;;;;;;5090622;28;20293;-75
2024/02/24 01:38:09;;;;;;;14.23;6.65;;;4.50;1.00;;;;;;5091829;28;20239;-75
2024/02/24 01:40:36;;;;;;;11.07;6.30;;;4.50;1.00;;;;;;5092109;28;20323;-75
2024/02/24 01:43:23;;;;;;;9.63;6.63;;;4.60;1.00;;;;;;5098362;27;20320;-76
2024/02/24 01:45:50;;;;;;;7.13;4.90;;;4.60;1.00;;;;;;5090608;28;20331;-76
2024/02/24 01:48:17;;;;;;;6.80;5.75;;;4.70;1.00;;;;;;5088532;28;20243;-75
2024/02/24 01:50:46;;;;;;;6.32;5.80;;;4.70;1.00;;;;;;5103704;27;20744;-77
2024/02/24 01:53:13;;;;;;;7.60;5.60;;;4.70;1.00;;;;;;5097672;27;20233;-78
2024/02/24 01:55:40;;;;;;;5.93;5.32;;;4.70;1.00;;;;;;5099960;27;20239;-78
2024/02/24 01:58:10;;;;;;;11.35;7.80;;;4.60;1.00;;;;;;5096600;27;20235;-77
2024/02/24 02:00:37;;;;;;;8.10;5.75;;;4.60;1.00;;;;;;5105978;27;20289;-75
2024/02/24 02:03:05;;;;;;;6.13;5.53;;;4.60;1.00;;;;;;5092270;28;20351;-76
2024/02/24 02:05:34;;;;;;;5.60;5.10;;;4.70;1.00;;;;;;5091834;28;20255;-75
2024/02/24 02:08:01;;;;;;;7.80;5.88;;;4.80;1.00;;;;;;5091958;28;20314;-77
2024/02/24 02:10:45;;;;;;;7.97;5.50;;;4.80;1.00;;;;;;5093892;28;20734;-78
2024/02/24 02:13:14;;;;;;;6.45;4.60;;;4.70;1.00;;;;;;5099053;27;20235;-76
2024/02/24 02:15:42;;;;;;;25.38;14.50;;;4.70;1.00;;;;;;5105615;27;20584;-77
2024/02/24 02:18:09;;;;;;;5.50;5.00;;;4.60;1.00;;;;;;5087569;28;20321;-77
2024/02/24 02:20:36;;;;;;;8.70;6.13;;;4.60;1.00;;;;;;5103838;27;20321;-77
2024/02/24 02:23:05;;;;;;;5.10;4.70;;;4.60;1.00;;;;;;5104355;27;20271;-77
2024/02/24 02:25:32;;;;;;;6.10;4.85;;;4.60;1.00;;;;;;5089978;27;20691;-75
2024/02/24 02:28:00;;;;;;;6.95;5.00;;;4.70;1.00;;;;;;5104162;27;20759;-78
2024/02/24 02:30:27;;;;;;;12.77;5.85;;;4.70;1.00;;;;;;5092911;28;20266;-77
2024/02/24 02:32:54;;;;;;;8.20;5.80;;;4.80;1.00;;;;;;5102742;27;20403;-76
2024/02/24 02:35:21;;;;;;;6.25;4.55;;;4.80;1.00;;;;;;5113497;27;20248;-76
2024/02/24 02:37:48;;;;;;;12.10;6.22;;;4.80;1.00;;;;;;5102054;27;20244;-78
2024/02/24 02:40:20;;;;;;;9.98;5.57;;;4.90;1.00;;;;;;5094043;28;20341;-76
2024/02/24 02:42:47;;;;;;;7.53;5.20;;;4.90;1.00;;;;;;5099016;27;20240;-77
2024/02/24 02:45:14;;;;;;;6.47;5.30;;;4.90;1.00;;;;;;5091884;28;20232;-78
2024/02/24 02:47:41;;;;;;;4.93;4.43;;;4.80;1.00;;;;;;5087547;28;20310;-77
2024/02/24 02:50:09;;;;;;;5.00;4.00;;;4.80;1.00;;;;;;5084284;28;20362;-77
2024/02/24 02:52:36;;;;;;;5.30;4.80;;;4.80;1.00;;;;;;5089227;28;20256;-75
2024/02/24 02:55:03;;;;;;;6.50;4.97;;;4.70;1.00;;;;;;5090146;28;20248;-76
2024/02/24 02:57:31;;;;;;;6.05;4.70;;;4.70;1.00;;;;;;5088784;28;20245;-75
2024/02/24 02:59:58;;;;;;;5.43;4.70;;;4.60;1.00;;;;;;5092922;28;20315;-76
2024/02/24 03:02:25;;;;;;;7.25;4.55;;;4.60;1.00;;;;;;5088162;28;20811;-75
2024/02/24 03:04:53;;;;;;;5.30;4.80;;;4.60;1.00;;;;;;5088078;28;20669;-75
2024/02/24 03:07:20;;;;;;;5.55;5.00;;;4.60;1.00;;;;;;5090612;28;20236;-75
2024/02/24 03:09:47;;;;;;;7.95;6.05;;;4.80;1.00;;;;;;5087507;27;20326;-75
2024/02/24 03:12:15;;;;;;;5.03;4.45;;;4.80;1.00;;;;;;5093313;27;20754;-75
2024/02/24 03:14:44;;;;;;;10.70;5.25;;;4.70;1.00;;;;;;5086618;28;20705;-74
2024/02/24 03:17:11;;;;;;;7.20;4.57;;;4.80;1.00;;;;;;5089574;28;20236;-75
2024/02/24 03:19:39;;;;;;;5.90;4.82;;;4.80;1.00;;;;;;5096696;27;22863;-75
2024/02/24 03:22:06;;;;;;;5.70;5.20;;;4.80;1.00;;;;;;5110052;27;20262;-76
2024/02/24 03:24:33;;;;;;;5.00;4.50;;;4.90;1.00;;;;;;5099956;27;20327;-75
2024/02/24 03:27:00;;;;;;;6.78;5.28;;;4.90;1.00;;;;;;5107813;27;20707;-74
2024/02/24 03:29:27;;;;;;;7.35;5.13;;;4.80;1.00;;;;;;5099118;27;21075;-76
2024/02/24 03:31:55;;;;;;;5.63;4.97;;;4.70;1.00;;;;;;5090151;28;20727;-75
2024/02/24 03:34:22;;;;;;;5.80;5.20;;;4.70;1.00;;;;;;5108044;27;20266;-76
2024/02/24 03:36:49;;;;;;;6.25;4.60;;;4.60;1.00;;;;;;5097451;27;20293;-74
2024/02/24 03:39:18;;;;;;;7.47;5.47;;;4.60;1.00;;;;;;5098528;27;21202;-76
2024/02/24 03:41:45;;;;;;;4.82;4.43;;;4.60;1.00;;;;;;5089234;27;20294;-75
2024/02/24 03:44:12;;;;;;;5.18;4.68;;;4.60;1.00;;;;;;5084854;28;20747;-75
2024/02/24 03:46:39;;;;;;;7.90;5.25;;;4.60;1.00;;;;;;5085788;27;21006;-74
2024/02/24 03:49:09;;;;;;;5.32;4.70;;;4.70;1.00;;;;;;5087227;28;20287;-77
2024/02/24 03:51:36;;;;;;;5.25;4.68;;;4.70;1.00;;;;;;5085929;28;20426;-75
2024/02/24 03:54:03;;;;;;;5.93;5.13;;;4.60;1.00;;;;;;5090121;27;20268;-75
2024/02/24 03:56:30;;;;;;;5.63;5.00;;;4.50;1.00;;;;;;5094439;27;20381;-76
2024/02/24 03:58:57;;;;;;;5.18;4.70;;;4.60;1.00;;;;;;5090880;27;21095;-75
2024/02/24 04:01:27;;;;;;;5.10;4.30;;;4.60;1.00;;;;;;5105187;27;20246;-75
2024/02/24 04:03:54;;;;;;;7.43;5.70;;;4.60;1.00;;;;;;5089738;28;20623;-77
2024/02/24 04:06:22;;;;;;;8.60;5.80;;;4.60;1.00;;;;;;5097842;27;20319;-76
2024/02/24 04:08:49;;;;;;;9.65;5.38;;;4.60;1.00;;;;;;5098433;27;20701;-77
2024/02/24 04:11:17;;;;;;;8.43;5.47;;;4.50;1.00;;;;;;5093076;28;20289;-76
2024/02/24 04:13:44;;;;;;;6.95;4.88;;;4.60;1.00;;;;;;5087800;28;20723;-77
2024/02/24 04:16:12;;;;;;;7.22;5.30;;;4.50;1.00;;;;;;5088854;28;20236;-76
2024/02/24 04:18:39;;;;;;;7.35;5.47;;;4.50;1.00;;;;;;5090485;28;20236;-76
2024/02/24 04:21:07;;;;;;;9.15;5.40;;;4.50;1.00;;;;;;5088070;27;20285;-79
2024/02/24 04:23:35;;;;;;;8.68;6.13;;;4.40;1.00;;;;;;5088183;27;20278;-78
2024/02/24 04:26:02;;;;;;;6.00;5.05;;;4.40;1.00;;;;;;5102308;27;20231;-77
2024/02/24 04:28:29;;;;;;;13.02;6.00;;;4.40;1.00;;;;;;5100427;27;20367;-76
2024/02/24 04:30:58;;;;;;;7.20;6.57;;;4.30;1.00;;;;;;5090382;28;20739;-77
2024/02/24 04:33:25;;;;;;;5.20;4.80;;;4.30;1.00;;;;;;5086486;28;20237;-78
2024/02/24 04:35:52;;;;;;;6.10;5.20;;;4.20;1.00;;;;;;5096967;27;20322;-75
2024/02/24 04:38:20;;;;;;;4.80;4.30;;;4.20;1.00;;;;;;5103608;27;20263;-78
2024/02/24 04:40:49;;;;;;;5.70;5.07;;;4.20;1.00;;;;;;5085265;28;20239;-78
2024/02/24 04:43:16;;;;;;;7.53;5.65;;;4.20;1.00;;;;;;5085418;28;20290;-77
2024/02/24 04:45:42;;;;;;;6.75;6.05;;;4.20;1.00;;;;;;5093275;27;20227;-75
2024/02/24 04:48:09;;;;;;;5.78;5.28;;;4.10;1.00;;;;;;5096404;27;20235;-77
2024/02/24 04:50:36;;;;;;;6.15;5.00;;;4.10;1.00;;;;;;5090340;27;21342;-79
2024/02/24 04:53:04;;;;;;;5.80;5.22;;;4.10;1.00;;;;;;5086396;28;20717;-78
2024/02/24 04:55:31;;;;;;;6.22;5.20;;;4.10;1.00;;;;;;5087047;28;20304;-76
2024/02/24 04:58:02;;;;;;;10.48;5.80;;;4.10;1.00;;;;;;5085942;28;20704;-78
2024/02/24 05:00:29;;;;;;;6.97;6.10;;;4.10;1.00;;;;;;5087060;28;20244;-75
2024/02/24 05:02:56;;;;;;;6.45;5.80;;;4.10;1.00;;;;;;5083232;28;20227;-78
2024/02/24 05:05:23;;;;;;;8.00;4.72;;;4.10;1.00;;;;;;5085326;27;20353;-77
2024/02/24 05:07:50;;;;;;;7.25;6.18;;;4.10;1.00;;;;;;5108364;27;20267;-78
2024/02/24 05:10:17;;;;;;;8.30;6.30;;;4.10;1.00;;;;;;5108055;27;20238;-77
2024/02/24 05:12:47;;;;;;;10.23;6.00;;;4.10;1.00;;;;;;5097470;27;20236;-78
2024/02/24 05:15:17;;;;;;;11.80;6.80;;;3.90;1.00;;;;;;5085883;28;20236;-78
2024/02/24 05:17:44;;;;;;;9.57;6.55;;;3.70;1.00;;;;;;5098882;27;20722;-75
2024/02/24 05:20:13;;;;;;;9.68;5.40;;;3.60;1.00;;;;;;5098711;27;20333;-75
2024/02/24 05:22:40;;;;;;;5.65;4.80;;;3.50;1.00;;;;;;5086505;28;21484;-75
2024/02/24 05:25:09;;;;;;;6.43;5.50;;;3.50;1.00;;;;;;5091062;28;20243;-75
2024/02/24 05:27:36;;;;;;;6.75;5.90;;;3.60;1.00;;;;;;5107565;27;20250;-75
2024/02/24 05:30:04;;;;;;;15.70;8.45;;;3.50;1.00;;;;;;5096046;27;20393;-75
2024/02/24 05:32:33;;;;;;;10.68;6.35;;;3.50;1.00;;;;;;5091914;28;20244;-75
2024/02/24 05:34:59;;;;;;;7.57;6.20;;;3.50;1.00;;;;;;5087462;28;20228;-77
2024/02/24 05:37:27;;;;;;;8.80;6.90;;;3.50;1.00;;;;;;5095816;27;20274;-75
2024/02/24 05:39:54;;;;;;;6.32;5.72;;;3.50;1.00;;;;;;5106553;27;20235;-75
2024/02/24 05:42:21;;;;;;;5.60;5.10;;;3.50;1.00;;;;;;5110753;27;20235;-74
2024/02/24 05:44:48;;;;;;;9.77;6.25;;;3.60;1.00;;;;;;5107224;27;20235;-77
2024/02/24 05:47:14;;;;;;;18.40;6.72;;;3.50;1.00;;;;;;5107830;27;20243;-74
2024/02/24 05:49:43;;;;;;;7.85;6.38;;;3.50;1.00;;;;;;5099017;27;21179;-74
2024/02/24 05:52:10;;;;;;;9.02;6.50;;;3.50;1.00;;;;;;5095431;27;20938;-74
2024/02/24 05:54:40;;;;;;;6.25;5.40;;;3.40;1.00;;;;;;5085685;28;20236;-75
2024/02/24 05:57:07;;;;;;;6.60;5.90;;;3.40;1.00;;;;;;5085722;28;20331;-74
2024/02/24 05:59:35;;;;;;;6.95;5.43;;;3.40;1.00;;;;;;5088558;27;20264;-75
2024/02/24 06:02:03;;;;;;;7.82;6.20;;;3.30;1.00;;;;;;5090906;27;20602;-75
2024/02/24 06:04:30;;;;;;;8.15;6.72;;;3.40;1.00;;;;;;5089609;27;20673;-75
2024/02/24 06:06:58;;;;;;;7.75;6.60;;;3.30;1.00;;;;;;5098878;27;20259;-75
2024/02/24 06:09:25;;;;;;;7.68;5.40;;;3.20;1.00;;;;;;5106483;27;20249;-75
2024/02/24 06:11:53;;;;;;;10.55;8.70;;;3.10;1.00;;;;;;5109187;27;20262;-75
2024/02/24 06:14:20;;;;;;;9.45;6.82;;;3.10;1.00;;;;;;5109557;27;20258;-76
2024/02/24 06:16:50;;;;;;;9.65;6.45;;;3.10;1.00;;;;;;5107448;27;20262;-75
2024/02/24 06:19:18;;;;;;;8.15;5.95;;;3.10;1.00;;;;;;5112132;27;21484;-76
2024/02/24 06:21:45;;;;;;;5.68;5.05;;;3.20;1.00;;;;;;5109417;27;21570;-76
2024/02/24 06:24:13;;;;;;;8.48;7.63;;;3.20;1.00;;;;;;5096652;27;20231;-76
2024/02/24 06:26:40;;;;;;;7.80;6.25;;;3.20;1.00;;;;;;5110846;27;20242;-75
2024/02/24 06:29:09;;;;;;;7.47;5.80;;;3.20;1.00;;;;;;5097792;27;20703;-73
2024/02/24 06:31:36;;;;;;;9.25;6.47;;;3.20;1.00;;;;;;5106009;27;20312;-74
2024/02/24 06:34:04;;;;;;;7.30;6.60;;;3.20;1.00;;;;;;5100984;27;20355;-72
2024/02/24 06:36:31;;;;;;;7.95;6.40;;;3.20;1.00;;;;;;5095964;27;20692;-74
2024/02/24 06:38:59;;;;;;;7.72;7.03;;;3.20;1.00;;;;;;5099487;27;20358;-73
2024/02/24 06:41:27;;;;;;;9.43;7.20;;;3.20;1.00;;;;;;5109715;27;20315;-73
2024/02/24 06:43:57;;;;;;;13.95;6.88;;;3.20;1.00;;;;;;5087412;28;20246;-72
2024/02/24 06:46:24;;;;;;;9.75;6.75;;;3.40;1.00;;;;;;5097029;27;20250;-74
2024/02/24 06:48:51;;;;;;;17.02;8.25;;;3.50;1.00;;;;;;5088483;27;20956;-73
2024/02/24 06:51:18;;;;;;;7.07;6.35;;;3.50;1.00;;;;;;5087790;28;20259;-73
2024/02/24 06:53:47;;;;;;;10.32;8.27;;;3.50;1.00;;;;;;5086452;28;20236;-73
2024/02/24 06:56:14;;;;;;;7.63;6.80;;;3.40;1.00;;;;;;5090539;28;20246;-73
2024/02/24 06:58:44;;;;;;;11.10;7.63;;;3.40;1.00;;;;;;5087990;27;21034;-73
2024/02/24 07:01:11;;;;;;;9.50;7.70;;;3.50;1.00;;;;;;5091929;28;20240;-74
2024/02/24 07:03:38;;;;;;;8.88;7.13;;;3.50;1.00;;;;;;5088995;28;20240;-75
2024/02/24 07:06:06;;;;;;;7.28;6.65;;;3.70;1.00;;;;;;5086389;28;20723;-75
2024/02/24 07:08:33;;;;;;;10.02;7.15;;;3.90;1.00;;;;;;5087335;28;20314;-72
2024/02/24 07:11:00;;;;;;;8.32;7.20;;;3.90;1.00;;;;;;5087837;27;20388;-73
2024/02/24 07:13:27;;;;;;;8.32;7.25;;;4.00;1.00;;;;;;5100676;27;20280;-74
2024/02/24 07:15:55;;;;;;;9.55;6.97;;;4.10;1.00;;;;;;5095176;27;20317;-72
2024/02/24 07:18:23;;;;;;;9.77;7.50;;;4.10;1.00;;;;;;5095690;27;20356;-73
2024/02/24 07:20:50;;;;;;;10.95;7.10;;;4.20;1.00;;;;;;5099079;27;20239;-73
2024/02/24 07:23:17;;;;;;;8.65;7.03;;;4.20;1.00;;;;;;5109963;27;20657;-72
2024/02/24 07:25:45;;;;;;;10.13;6.63;;;4.20;1.00;;;;;;5107140;27;21078;-73
2024/02/24 07:28:12;;;;;;;12.70;7.03;;;4.30;1.00;;;;;;5106904;27;20285;-75
2024/02/24 07:30:39;;;;;;;9.60;7.30;;;4.40;1.00;;;;;;5109797;27;20250;-73
2024/02/24 07:33:08;;;;;;;7.00;6.25;;;4.40;1.00;;;;;;5091285;28;20288;-73
2024/02/24 07:35:36;;;;;;;6.93;6.32;;;4.50;1.00;;;;;;5089414;28;20371;-74
2024/02/24 07:38:03;;;;;;;7.47;6.72;;;4.60;1.00;;;;;;5096159;27;20255;-74
2024/02/24 07:40:29;;;;;;;6.40;5.50;;;4.80;1.00;;;;;;5089651;28;20245;-74
2024/02/24 07:42:56;;;;;;;8.55;6.47;;;5.00;1.00;;;;;;5089367;28;20283;-74
2024/02/24 07:45:25;;;;;;;7.30;6.60;;;5.00;1.00;;;;;;5096312;27;21036;-74
2024/02/24 07:47:52;;;;;;;6.82;6.15;;;5.10;1.00;;;;;;5089468;28;20329;-73
2024/02/24 07:50:21;;;;;;;12.00;6.55;;;5.20;1.00;;;;;;5084664;28;20968;-74
2024/02/24 07:52:48;;;;;;;8.90;6.50;;;5.30;1.00;;;;;;5089191;28;20237;-77
2024/02/24 07:55:15;;;;;;;7.22;6.60;;;5.50;1.00;;;;;;5094542;27;20231;-76
2024/02/24 07:57:42;;;;;;;6.72;5.50;;;5.50;1.00;;;;;;5089708;28;20285;-72
2024/02/24 08:00:12;;;;;;;8.57;5.95;;;5.60;1.00;;;;;;5088713;27;20362;-74
2024/02/24 08:02:40;;;;;;;6.18;5.57;;;5.70;1.00;;;;;;5086243;27;20239;-74
2024/02/24 08:05:07;;;;;;;6.85;5.82;;;5.90;1.00;;;;;;5097824;27;20235;-75
2024/02/24 08:07:36;;;;;;;6.00;5.45;;;6.10;1.00;;;;;;5099987;27;20324;-75
2024/02/24 08:10:05;;;;;;;6.75;5.22;;;6.20;1.00;;;;;;5108837;27;20246;-74
2024/02/24 08:12:33;;;;;;;6.35;5.18;;;6.30;1.00;;;;;;5106799;27;20220;-73
2024/02/24 08:15:00;;;;;;;7.18;5.00;;;6.40;1.00;;;;;;5111166;27;20255;-74
2024/02/24 08:17:27;;;;;;;7.18;5.80;;;6.50;1.00;;;;;;5090561;27;22149;-74
2024/02/24 08:19:55;;;;;;;5.70;5.03;;;6.60;1.00;;;;;;5088882;28;20233;-72
2024/02/24 08:22:22;;;;;;;5.80;4.65;;;6.70;1.00;;;;;;5087234;28;20242;-73
2024/02/24 08:24:52;;;;;;;6.28;4.97;;;6.80;1.00;;;;;;5101985;27;20243;-75
2024/02/24 08:27:19;;;;;;;5.63;4.68;;;7.00;1.00;;;;;;5073074;28;20236;-76
2024/02/24 08:29:46;;;;;;;4.93;4.38;;;7.20;1.00;;;;;;5086005;28;22281;-74
2024/02/24 08:32:17;;;;;;;10.93;6.30;;;7.30;1.00;;;;;;5093055;28;20616;-74
2024/02/24 08:34:44;;;;;;;7.00;4.70;;;7.40;1.00;;;;;;5084772;28;21298;-73
2024/02/24 08:37:11;;;;;;;6.07;4.65;;;7.50;1.00;;;;;;5084348;28;20448;-74
2024/02/24 08:39:38;;;;;;;4.83;4.30;;;7.60;1.00;;;;;;5086425;28;20267;-76
2024/02/24 08:42:07;;;;;;;5.00;4.13;;;7.70;1.00;;;;;;5087912;28;20454;-73
2024/02/24 08:44:34;;;;;;;4.90;4.40;;;7.90;1.00;;;;;;5091585;27;20468;-73
2024/02/24 08:47:01;;;;;;;4.63;4.20;;;8.00;1.00;;;;;;5097282;27;20546;-74
2024/02/24 08:49:28;;;;;;;8.27;4.23;;;8.30;1.00;;;;;;5100716;27;20494;-75
2024/02/24 08:51:55;;;;;;;4.40;4.00;;;8.90;1.00;;;;;;5101888;27;20535;-76
2024/02/24 08:54:22;;;;;;;6.87;4.10;;;10.00;1.00;;;;;;5105243;27;20574;-76
2024/02/24 08:56:49;;;;;;;4.20;3.80;;;10.50;1.00;;;;;;5106843;27;20501;-76
2024/02/24 08:59:17;;;;;;;3.93;3.53;;;11.00;1.00;;;;;;5107508;27;20458;-76
2024/02/24 09:01:44;;;;;;;4.73;3.50;;;12.20;1.00;;;;;;5102682;27;20477;-75
2024/02/24 09:04:12;;;;;;;5.27;3.90;;;12.90;1.00;;;;;;5103973;27;20468;-75
2024/02/24 09:06:39;;;;;;;6.13;4.20;;;14.00;1.00;;;;;;5097571;27;20466;-75
2024/02/24 09:09:06;;;;;;;5.37;3.60;;;15.20;1.00;;;;;;5104218;27;20471;-76
2024/02/24 09:11:33;;;;;;;5.70;4.33;;;15.70;1.00;;;;;;5104856;27;20464;-76
2024/02/24 09:14:00;;;;;;;4.20;3.73;;;15.70;1.00;;;;;;5106099;27;20462;-77
2024/02/24 09:16:35;;;;;;;5.43;3.47;;;15.90;1.00;;;;;;5088987;27;20463;-77
2024/02/24 09:19:06;;;;;;;4.90;3.93;;;16.20;1.00;;;;;;5096381;27;20478;-76
2024/02/24 09:21:33;;;;;;;5.70;3.80;;;16.30;1.00;;;;;;5073357;27;21382;-76
2024/02/24 09:24:05;;;;;;;4.10;3.60;;;15.80;1.00;;;;;;5073058;27;20544;-75
2024/02/24 09:26:35;;;;;;;3.50;3.20;;;14.90;1.00;;;;;;5068930;27;20538;-75
2024/02/24 09:29:04;;;;;;;5.00;4.50;;;15.10;1.00;;;;;;5081906;28;20547;-75
2024/02/24 09:31:33;;;;;;;3.57;3.27;;;15.90;1.00;;;;;;5088486;28;20482;-75
2024/02/24 09:34:00;;;;;;;4.73;3.43;;;17.10;1.00;;;;;;5091596;27;21017;-77
2024/02/24 09:36:27;;;;;;;5.73;3.60;;;18.00;1.00;;;;;;5105302;27;20458;-77
2024/02/24 09:38:54;;;;;;;7.67;4.27;;;18.30;1.00;;;;;;5072075;28;20467;-76
2024/02/24 09:41:21;;;;;;;5.93;3.27;;;18.00;1.00;;;;;;5085720;28;20547;-78
2024/02/24 09:43:50;;;;;;;5.40;4.93;;;17.70;1.00;;;;;;5084332;28;20479;-77
2024/02/24 09:46:18;;;;;;;3.13;2.70;;;17.50;1.00;;;;;;5090612;27;20455;-77
2024/02/24 09:48:48;;;;;;;4.20;2.93;;;16.30;1.00;;;;;;5083885;27;20955;-75
2024/02/24 09:51:15;;;;;;;3.80;2.40;;;16.40;1.00;;;;;;5100282;27;20467;-77
2024/02/24 09:53:42;;;;;;;5.40;3.23;;;16.40;1.00;;;;;;5095642;27;20497;-77
2024/02/24 10:02:53;;;;;;;4.17;2.70;;;14.80;1.00;;;;;;5091643;27;20449;-75
2024/02/24 10:05:22;;;;;;;4.00;2.73;;;15.30;1.00;;;;;;5090324;28;21972;-77
2024/02/24 10:07:49;;;;;;;3.13;2.80;;;14.60;1.00;;;;;;5092603;28;20488;-76
2024/02/24 10:10:16;;;;;;;4.57;2.30;;;14.00;1.00;;;;;;5091981;28;20469;-78
2024/02/24 10:12:57;;;;;;;2.23;2.03;;;14.00;1.00;;;;;;5082605;28;20477;-77
2024/02/24 10:15:25;;;;;;;3.10;2.10;;;14.00;1.00;;;;;;5088158;28;20476;-76
2024/02/24 10:17:55;;;;;;;4.90;2.00;;;14.00;1.00;;;;;;5092072;28;20539;-78
2024/02/24 10:20:24;;;;;;;3.40;2.40;;;14.00;1.00;;;;;;5093754;28;20618;-78
2024/02/24 10:22:53;;;;;;;2.97;2.00;;;14.10;1.00;;;;;;5091025;28;20560;-76
2024/02/24 10:25:21;;;;;;;3.57;2.17;;;13.90;1.00;;;;;;5090282;28;20476;-76
2024/02/24 10:27:49;;;;;;;5.10;2.73;;;14.20;1.00;;;;;;5096888;27;20561;-78
2024/02/24 10:30:16;;;;;;;4.30;2.33;;;15.20;1.00;;;;;;5087170;27;20894;-76
2024/02/24 10:32:43;;;;;;;6.03;2.63;;;15.40;1.00;;;;;;5095527;27;20550;-76
2024/02/24 10:35:13;;;;;;;3.50;2.27;;;15.40;1.00;;;;;;5086409;28;20563;-76
2024/02/24 10:37:42;;;;;;;3.27;2.00;;;15.40;1.00;;;;;;5089833;27;20561;-77
2024/02/24 10:40:10;;;;;;;2.90;2.00;;;14.90;1.00;;;;;;5089255;27;20540;-77
2024/02/24 10:42:38;;;;;;;3.43;1.97;;;15.00;1.00;;;;;;5088045;28;20463;-77
2024/02/24 10:45:07;;;;;;;4.03;2.50;;;14.90;1.00;;;;;;5089982;28;21279;-77
2024/02/24 10:47:35;;;;;;;3.10;2.10;;;14.50;1.00;;;;;;5097149;27;20465;-77
2024/02/24 10:50:03;;;;;;;3.10;2.23;;;14.60;1.00;;;;;;5103756;27;21406;-78
2024/02/24 10:52:32;;;;;;;4.47;2.40;;;15.00;1.00;;;;;;5087984;28;20569;-77
2024/02/24 10:55:02;;;;;;;3.63;1.90;;;15.60;1.00;;;;;;5106635;27;20547;-77
2024/02/24 10:57:31;;;;;;;1.73;1.63;;;15.70;1.00;;;;;;5081712;28;20953;-77
2024/02/24 11:00:00;;;;;;;2.70;2.13;;;15.10;1.00;;;;;;5068863;28;20780;-77
2024/02/24 11:02:30;;;;;;;3.73;2.20;;;15.10;1.00;;;;;;5091539;28;20533;-76
2024/02/24 11:05:01;;;;;;;2.80;2.17;;;14.50;1.00;;;;;;5088606;28;20477;-77
2024/02/24 11:07:33;;;;;;;4.97;2.37;;;14.00;1.00;;;;;;5088362;28;20477;-77
2024/02/24 11:10:01;;;;;;;3.50;2.07;;;13.90;1.00;;;;;;5110064;27;20456;-77
2024/02/24 11:12:29;;;;;;;3.73;1.90;;;13.60;1.00;;;;;;5089769;28;20576;-77
2024/02/24 11:14:56;;;;;;;2.80;2.17;;;13.20;1.00;;;;;;5093831;27;20547;-78
2024/02/24 11:17:45;;;;;;;1.87;1.77;;;13.10;1.00;;;;;;5087430;27;21270;-75
2024/02/24 11:20:12;;;;;;;2.37;2.17;;;13.20;1.00;;;;;;5089127;28;20846;-77
2024/02/24 11:22:42;;;;;;;3.70;2.17;;;13.30;1.00;;;;;;5090050;28;20452;-77
2024/02/24 11:25:17;;;;;;;3.47;2.37;;;13.20;1.00;;;;;;5084032;28;20506;-77
2024/02/24 11:27:56;;;;;;;4.20;2.50;;;13.20;1.00;;;;;;5089218;28;20814;-78
2024/02/24 11:30:45;;;;;;;2.50;1.90;;;13.10;1.00;;;;;;5087886;28;20477;-77
2024/02/24 11:33:25;;;;;;;3.23;1.90;;;12.90;1.00;;;;;;5092175;28;20468;-78
2024/02/24 11:35:53;;;;;;;3.20;2.00;;;12.50;1.00;;;;;;5094433;27;20945;-77
2024/02/24 11:38:21;;;;;;;4.60;2.60;;;12.50;1.00;;;;;;5089334;28;20989;-79
2024/02/24 11:40:50;;;;;;;3.13;2.73;;;12.30;1.00;;;;;;5106103;27;20499;-78
2024/02/24 11:43:18;;;;;;;3.53;2.87;;;12.30;1.00;;;;;;5105719;27;20497;-78
2024/02/24 11:45:46;;;;;;;3.83;2.73;;;12.30;1.00;;;;;;5099804;27;20500;-77
2024/02/24 11:48:14;;;;;;;2.20;2.00;;;12.40;1.00;;;;;;5090947;27;21288;-77
2024/02/24 11:50:44;;;;;;;3.23;1.87;;;12.40;1.00;;;;;;5109301;27;20532;-77
2024/02/24 11:53:14;;;;;;;4.07;2.40;;;12.30;1.00;;;;;;5108973;27;20464;-77
2024/02/24 11:55:42;;;;;;;4.17;2.73;;;12.20;1.00;;;;;;5102501;27;20471;-76
2024/02/24 11:58:10;;;;;;;4.17;2.20;;;12.30;1.00;;;;;;5090322;27;20455;-77
2024/02/24 12:00:38;;;;;;;3.03;1.83;;;12.20;1.00;;;;;;5095797;27;20464;-76
2024/02/24 12:03:07;;;;;;;3.30;1.90;;;12.30;1.00;;;;;;5103366;27;20585;-79
2024/02/24 12:05:34;;;;;;;4.50;2.50;;;12.30;1.00;;;;;;5096097;27;20479;-78
2024/02/24 12:08:04;;;;;;;5.27;2.10;;;12.50;1.00;;;;;;5088379;28;20507;-77
2024/02/24 12:10:36;;;;;;;4.43;1.50;;;12.50;1.00;;;;;;5093888;28;21327;-76
2024/02/24 12:13:08;;;;;;;2.33;2.13;;;13.20;1.00;;;;;;5073129;28;20465;-76
2024/02/24 12:15:38;;;;;;;2.50;1.73;;;15.50;1.00;;;;;;5090191;28;20466;-76
2024/02/24 12:18:06;;;;;;;2.53;2.00;;;17.60;1.00;;;;;;5068760;28;20559;-78
2024/02/24 12:20:37;;;;;;;2.90;2.00;;;18.90;1.00;;;;;;5100731;27;20466;-80
2024/02/24 12:23:04;;;;;;;2.87;2.60;;;19.60;1.00;;;;;;5109818;27;20475;-78
2024/02/24 12:25:32;;;;;;;4.63;2.67;;;19.90;1.00;;;;;;5101271;27;20469;-78
2024/02/24 12:28:00;;;;;;;5.37;2.47;;;20.70;1.00;;;;;;5107144;27;20951;-77
2024/02/24 12:30:27;;;;;;;3.10;2.00;;;22.30;1.00;;;;;;5109606;27;20972;-79
2024/02/24 12:32:56;;;;;;;2.40;1.70;;;23.90;1.00;;;;;;5094895;27;20427;-79
2024/02/24 12:35:25;;;;;;;3.70;2.30;;;24.30;1.00;;;;;;5097774;27;20857;-79
2024/02/24 12:37:53;;;;;;;3.83;2.07;;;23.70;1.00;;;;;;5088850;28;20525;-79
2024/02/24 12:40:28;;;;;;;4.10;2.40;;;23.00;1.00;;;;;;5099946;27;20957;-79
2024/02/24 12:42:56;;;;;;;2.90;1.90;;;23.60;1.00;;;;;;5091167;27;20468;-79
2024/02/24 12:45:24;;;;;;;2.83;1.80;;;24.20;1.00;;;;;;5091019;28;20441;-80
2024/02/24 12:47:51;;;;;;;3.90;2.00;;;23.10;1.00;;;;;;5104089;27;20904;-77
2024/02/24 12:50:23;;;;;;;2.60;1.80;;;23.10;1.00;;;;;;5098869;27;20462;-81
2024/02/24 12:52:51;;;;;;;2.60;1.80;;;23.10;1.00;;;;;;5097140;27;20461;-81
2024/02/24 12:55:19;;;;;;;2.80;1.97;;;23.10;1.00;;;;;;5101130;27;20526;-79
2024/02/24 12:57:46;;;;;;;4.47;1.97;;;22.80;1.00;;;;;;5088052;28;20527;-80
2024/02/24 13:00:15;;;;;;;1.67;1.47;;;21.90;1.00;;;;;;5086333;28;20433;-78
2024/02/24 13:02:42;;;;;;;4.60;1.80;;;21.30;1.00;;;;;;5085577;28;20518;-80
2024/02/24 13:05:10;;;;;;;3.73;1.60;;;20.40;1.00;;;;;;5102130;27;20471;-78
2024/02/24 13:07:39;;;;;;;2.90;1.87;;;18.60;1.00;;;;;;5093529;27;20452;-79
2024/02/24 13:10:06;;;;;;;3.20;1.77;;;17.60;1.00;;;;;;5094051;27;20499;-79
2024/02/24 13:12:33;;;;;;;2.10;1.67;;;17.20;1.00;;;;;;5090857;28;20462;-80
2024/02/24 13:15:00;;;;;;;2.10;1.70;;;16.90;1.00;;;;;;5087852;28;20463;-80